sensor_id;sensor_type;location;lat;lon;timestamp;temperature;humidity
4578;DHT22;2301;47.354;8.528;2023-07-24T00:02:01;24.00;61.50
4578;DHT22;2301;47.354;8.528;2023-07-24T00:04:30;23.90;61.50
4578;DHT22;2301;47.354;8.528;2023-07-24T00:06:57;23.90;61.80
4578;DHT22;2301;47.354;8.528;2023-07-24T00:09:25;23.90;61.90
4578;DHT22;2301;47.354;8.528;2023-07-24T00:11:52;23.90;62.00
4578;DHT22;2301;47.354;8.528;2023-07-24T00:14:19;23.90;62.10
4578;DHT22;2301;47.354;8.528;2023-07-24T00:16:46;24.00;62.40
4578;DHT22;2301;47.354;8.528;2023-07-24T00:19:13;24.00;62.30
4578;DHT22;2301;47.354;8.528;2023-07-24T00:21:40;24.00;62.40
4578;DHT22;2301;47.354;8.528;2023-07-24T00:24:06;24.00;62.30
4578;DHT22;2301;47.354;8.528;2023-07-24T00:26:35;24.10;62.70
4578;DHT22;2301;47.354;8.528;2023-07-24T00:29:02;24.10;62.60
4578;DHT22;2301;47.354;8.528;2023-07-24T00:31:29;24.20;62.80
4578;DHT22;2301;47.354;8.528;2023-07-24T00:33:55;24.10;62.70
4578;DHT22;2301;47.354;8.528;2023-07-24T00:36:25;24.20;62.80
4578;DHT22;2301;47.354;8.528;2023-07-24T00:38:52;24.20;63.00
4578;DHT22;2301;47.354;8.528;2023-07-24T00:41:19;24.20;63.10
4578;DHT22;2301;47.354;8.528;2023-07-24T00:43:47;24.30;62.90
4578;DHT22;2301;47.354;8.528;2023-07-24T00:46:14;24.30;62.80
4578;DHT22;2301;47.354;8.528;2023-07-24T00:48:41;24.20;64.50
4578;DHT22;2301;47.354;8.528;2023-07-24T00:51:08;23.90;64.90
4578;DHT22;2301;47.354;8.528;2023-07-24T00:53:35;23.80;65.10
4578;DHT22;2301;47.354;8.528;2023-07-24T00:56:03;23.70;66.00
4578;DHT22;2301;47.354;8.528;2023-07-24T00:58:30;23.70;66.00
4578;DHT22;2301;47.354;8.528;2023-07-24T01:00:59;23.70;66.50
4578;DHT22;2301;47.354;8.528;2023-07-24T01:03:32;23.70;66.10
4578;DHT22;2301;47.354;8.528;2023-07-24T01:06:01;23.70;65.60
4578;DHT22;2301;47.354;8.528;2023-07-24T01:08:28;23.80;65.30
4578;DHT22;2301;47.354;8.528;2023-07-24T01:10:57;23.80;65.70
4578;DHT22;2301;47.354;8.528;2023-07-24T01:13:32;23.70;66.20
4578;DHT22;2301;47.354;8.528;2023-07-24T01:16:07;23.60;67.10
4578;DHT22;2301;47.354;8.528;2023-07-24T01:18:37;23.50;67.60
4578;DHT22;2301;47.354;8.528;2023-07-24T01:21:08;23.50;67.60
4578;DHT22;2301;47.354;8.528;2023-07-24T01:23:45;23.50;68.40
4578;DHT22;2301;47.354;8.528;2023-07-24T01:26:18;23.50;68.50
4578;DHT22;2301;47.354;8.528;2023-07-24T01:28:46;23.50;68.10
4578;DHT22;2301;47.354;8.528;2023-07-24T01:31:13;23.50;68.20
4578;DHT22;2301;47.354;8.528;2023-07-24T01:33:40;23.50;68.40
4578;DHT22;2301;47.354;8.528;2023-07-24T01:36:07;23.60;68.70
4578;DHT22;2301;47.354;8.528;2023-07-24T01:38:35;23.60;68.50
4578;DHT22;2301;47.354;8.528;2023-07-24T01:41:03;23.60;68.80
4578;DHT22;2301;47.354;8.528;2023-07-24T01:43:31;23.60;68.90
4578;DHT22;2301;47.354;8.528;2023-07-24T01:45:58;23.60;68.90
4578;DHT22;2301;47.354;8.528;2023-07-24T01:48:25;23.60;68.20
4578;DHT22;2301;47.354;8.528;2023-07-24T01:50:52;23.60;68.80
4578;DHT22;2301;47.354;8.528;2023-07-24T01:53:19;23.60;67.90
4578;DHT22;2301;47.354;8.528;2023-07-24T01:55:46;23.60;67.80
4578;DHT22;2301;47.354;8.528;2023-07-24T01:58:13;23.70;67.60
4578;DHT22;2301;47.354;8.528;2023-07-24T02:00:41;23.70;67.40
4578;DHT22;2301;47.354;8.528;2023-07-24T02:03:08;23.70;67.30
4578;DHT22;2301;47.354;8.528;2023-07-24T02:05:35;23.70;67.40
4578;DHT22;2301;47.354;8.528;2023-07-24T02:08:02;23.70;67.40
4578;DHT22;2301;47.354;8.528;2023-07-24T02:10:29;23.60;67.60
4578;DHT22;2301;47.354;8.528;2023-07-24T02:12:56;23.60;68.10
4578;DHT22;2301;47.354;8.528;2023-07-24T02:15:23;23.60;68.40
4578;DHT22;2301;47.354;8.528;2023-07-24T02:17:51;23.60;68.80
4578;DHT22;2301;47.354;8.528;2023-07-24T02:20:18;23.60;69.40
4578;DHT22;2301;47.354;8.528;2023-07-24T02:22:45;23.60;69.70
4578;DHT22;2301;47.354;8.528;2023-07-24T02:25:11;23.60;70.00
4578;DHT22;2301;47.354;8.528;2023-07-24T02:27:38;23.60;70.10
4578;DHT22;2301;47.354;8.528;2023-07-24T02:30:06;23.60;70.30
4578;DHT22;2301;47.354;8.528;2023-07-24T02:32:33;23.60;70.30
4578;DHT22;2301;47.354;8.528;2023-07-24T02:35:01;23.60;70.50
4578;DHT22;2301;47.354;8.528;2023-07-24T02:37:28;23.60;70.10
4578;DHT22;2301;47.354;8.528;2023-07-24T02:39:55;23.60;70.30
4578;DHT22;2301;47.354;8.528;2023-07-24T02:42:22;23.60;70.40
4578;DHT22;2301;47.354;8.528;2023-07-24T02:44:49;23.60;71.20
4578;DHT22;2301;47.354;8.528;2023-07-24T02:47:16;23.60;70.50
4578;DHT22;2301;47.354;8.528;2023-07-24T02:49:43;23.60;70.30
4578;DHT22;2301;47.354;8.528;2023-07-24T02:52:11;23.60;70.70
4578;DHT22;2301;47.354;8.528;2023-07-24T02:54:38;23.50;70.90
4578;DHT22;2301;47.354;8.528;2023-07-24T02:57:05;23.40;70.90
4578;DHT22;2301;47.354;8.528;2023-07-24T02:59:32;23.30;70.70
4578;DHT22;2301;47.354;8.528;2023-07-24T03:02:00;23.30;71.10
4578;DHT22;2301;47.354;8.528;2023-07-24T03:04:27;23.30;71.00
4578;DHT22;2301;47.354;8.528;2023-07-24T03:06:54;23.30;70.90
4578;DHT22;2301;47.354;8.528;2023-07-24T03:09:22;23.40;71.00
4578;DHT22;2301;47.354;8.528;2023-07-24T03:11:49;23.40;71.20
4578;DHT22;2301;47.354;8.528;2023-07-24T03:14:15;23.40;70.90
4578;DHT22;2301;47.354;8.528;2023-07-24T03:16:42;23.40;71.00
4578;DHT22;2301;47.354;8.528;2023-07-24T03:19:09;23.40;71.30
4578;DHT22;2301;47.354;8.528;2023-07-24T03:21:36;23.30;71.20
4578;DHT22;2301;47.354;8.528;2023-07-24T03:24:04;23.30;71.30
4578;DHT22;2301;47.354;8.528;2023-07-24T03:26:32;23.30;71.60
4578;DHT22;2301;47.354;8.528;2023-07-24T03:28:59;23.30;71.90
4578;DHT22;2301;47.354;8.528;2023-07-24T03:31:26;23.30;72.00
4578;DHT22;2301;47.354;8.528;2023-07-24T03:33:53;23.30;72.20
4578;DHT22;2301;47.354;8.528;2023-07-24T03:36:20;23.30;72.30
4578;DHT22;2301;47.354;8.528;2023-07-24T03:38:47;23.20;72.40
4578;DHT22;2301;47.354;8.528;2023-07-24T03:41:14;23.30;72.00
4578;DHT22;2301;47.354;8.528;2023-07-24T03:43:42;23.20;71.80
4578;DHT22;2301;47.354;8.528;2023-07-24T03:46:10;23.30;71.80
4578;DHT22;2301;47.354;8.528;2023-07-24T03:48:37;23.20;71.80
4578;DHT22;2301;47.354;8.528;2023-07-24T03:51:04;23.10;71.70
4578;DHT22;2301;47.354;8.528;2023-07-24T03:53:30;23.10;71.70
4578;DHT22;2301;47.354;8.528;2023-07-24T03:55:57;23.00;72.30
4578;DHT22;2301;47.354;8.528;2023-07-24T03:58:24;23.00;71.90
4578;DHT22;2301;47.354;8.528;2023-07-24T04:00:52;23.00;71.90
4578;DHT22;2301;47.354;8.528;2023-07-24T04:03:19;23.00;71.80
4578;DHT22;2301;47.354;8.528;2023-07-24T04:05:46;23.00;72.50
4578;DHT22;2301;47.354;8.528;2023-07-24T04:08:13;23.00;71.80
4578;DHT22;2301;47.354;8.528;2023-07-24T04:10:40;23.00;71.90
4578;DHT22;2301;47.354;8.528;2023-07-24T04:13:07;23.00;71.90
4578;DHT22;2301;47.354;8.528;2023-07-24T04:15:34;23.00;71.80
4578;DHT22;2301;47.354;8.528;2023-07-24T04:18:02;23.00;71.80
4578;DHT22;2301;47.354;8.528;2023-07-24T04:20:29;23.00;71.80
4578;DHT22;2301;47.354;8.528;2023-07-24T04:22:56;23.00;71.50
4578;DHT22;2301;47.354;8.528;2023-07-24T04:25:22;23.00;71.30
4578;DHT22;2301;47.354;8.528;2023-07-24T04:27:49;23.00;71.20
4578;DHT22;2301;47.354;8.528;2023-07-24T04:30:16;23.10;71.50
4578;DHT22;2301;47.354;8.528;2023-07-24T04:32:43;23.10;71.50
4578;DHT22;2301;47.354;8.528;2023-07-24T04:35:12;23.10;71.40
4578;DHT22;2301;47.354;8.528;2023-07-24T04:37:39;23.10;71.40
4578;DHT22;2301;47.354;8.528;2023-07-24T04:40:07;23.10;71.70
4578;DHT22;2301;47.354;8.528;2023-07-24T04:42:34;23.10;72.20
4578;DHT22;2301;47.354;8.528;2023-07-24T04:45:01;23.10;72.40
4578;DHT22;2301;47.354;8.528;2023-07-24T04:47:28;23.10;74.00
4578;DHT22;2301;47.354;8.528;2023-07-24T04:49:55;22.90;76.50
4578;DHT22;2301;47.354;8.528;2023-07-24T04:52:23;22.60;78.00
4578;DHT22;2301;47.354;8.528;2023-07-24T04:54:51;22.30;79.30
4578;DHT22;2301;47.354;8.528;2023-07-24T04:57:18;22.00;78.60
4578;DHT22;2301;47.354;8.528;2023-07-24T04:59:45;21.90;79.10
4578;DHT22;2301;47.354;8.528;2023-07-24T05:02:12;21.80;80.20
4578;DHT22;2301;47.354;8.528;2023-07-24T05:04:39;21.70;80.30
4578;DHT22;2301;47.354;8.528;2023-07-24T05:07:08;21.60;81.30
4578;DHT22;2301;47.354;8.528;2023-07-24T05:09:36;21.60;82.00
4578;DHT22;2301;47.354;8.528;2023-07-24T05:12:04;21.50;82.70
4578;DHT22;2301;47.354;8.528;2023-07-24T05:14:31;21.50;83.90
4578;DHT22;2301;47.354;8.528;2023-07-24T05:16:58;21.40;84.20
4578;DHT22;2301;47.354;8.528;2023-07-24T05:19:24;21.30;84.70
4578;DHT22;2301;47.354;8.528;2023-07-24T05:21:51;21.30;85.40
4578;DHT22;2301;47.354;8.528;2023-07-24T05:24:18;21.20;85.90
4578;DHT22;2301;47.354;8.528;2023-07-24T05:26:46;21.30;86.80
4578;DHT22;2301;47.354;8.528;2023-07-24T05:29:13;21.20;87.10
4578;DHT22;2301;47.354;8.528;2023-07-24T05:31:40;21.20;87.70
4578;DHT22;2301;47.354;8.528;2023-07-24T05:34:08;21.20;88.90
4578;DHT22;2301;47.354;8.528;2023-07-24T05:36:34;21.20;87.30
4578;DHT22;2301;47.354;8.528;2023-07-24T05:39:01;21.10;87.20
4578;DHT22;2301;47.354;8.528;2023-07-24T05:41:28;21.10;87.50
4578;DHT22;2301;47.354;8.528;2023-07-24T05:43:58;21.00;87.30
4578;DHT22;2301;47.354;8.528;2023-07-24T05:46:25;21.00;87.40
4578;DHT22;2301;47.354;8.528;2023-07-24T05:48:52;21.00;87.40
4578;DHT22;2301;47.354;8.528;2023-07-24T05:51:19;21.00;87.70
4578;DHT22;2301;47.354;8.528;2023-07-24T05:53:46;20.90;88.60
4578;DHT22;2301;47.354;8.528;2023-07-24T05:56:13;20.90;89.00
4578;DHT22;2301;47.354;8.528;2023-07-24T05:58:40;20.90;89.00
4578;DHT22;2301;47.354;8.528;2023-07-24T06:01:08;21.00;89.30
4578;DHT22;2301;47.354;8.528;2023-07-24T06:03:36;21.00;89.70
4578;DHT22;2301;47.354;8.528;2023-07-24T06:06:04;21.00;90.10
4578;DHT22;2301;47.354;8.528;2023-07-24T06:08:31;21.00;90.50
4578;DHT22;2301;47.354;8.528;2023-07-24T06:10:58;21.00;90.60
4578;DHT22;2301;47.354;8.528;2023-07-24T06:13:25;21.10;90.80
4578;DHT22;2301;47.354;8.528;2023-07-24T06:15:52;21.10;90.60
4578;DHT22;2301;47.354;8.528;2023-07-24T06:18:20;21.20;90.60
4578;DHT22;2301;47.354;8.528;2023-07-24T06:20:47;21.20;90.80
4578;DHT22;2301;47.354;8.528;2023-07-24T06:23:18;21.30;90.70
4578;DHT22;2301;47.354;8.528;2023-07-24T06:25:45;21.30;90.20
4578;DHT22;2301;47.354;8.528;2023-07-24T06:28:12;21.20;89.90
4578;DHT22;2301;47.354;8.528;2023-07-24T06:30:39;21.20;90.00
4578;DHT22;2301;47.354;8.528;2023-07-24T06:33:06;21.20;90.20
4578;DHT22;2301;47.354;8.528;2023-07-24T06:35:34;21.20;90.50
4578;DHT22;2301;47.354;8.528;2023-07-24T06:38:01;21.20;90.60
4578;DHT22;2301;47.354;8.528;2023-07-24T06:40:28;21.20;90.80
4578;DHT22;2301;47.354;8.528;2023-07-24T06:42:55;21.30;91.00
4578;DHT22;2301;47.354;8.528;2023-07-24T06:45:22;21.20;91.40
4578;DHT22;2301;47.354;8.528;2023-07-24T06:47:48;21.20;91.60
4578;DHT22;2301;47.354;8.528;2023-07-24T06:50:15;21.30;91.70
4578;DHT22;2301;47.354;8.528;2023-07-24T06:52:44;21.30;91.90
4578;DHT22;2301;47.354;8.528;2023-07-24T06:55:11;21.30;92.10
4578;DHT22;2301;47.354;8.528;2023-07-24T06:57:38;21.40;92.40
4578;DHT22;2301;47.354;8.528;2023-07-24T07:00:06;21.50;92.40
4578;DHT22;2301;47.354;8.528;2023-07-24T07:02:37;21.60;92.40
4578;DHT22;2301;47.354;8.528;2023-07-24T07:05:04;21.60;92.30
4578;DHT22;2301;47.354;8.528;2023-07-24T07:07:31;21.70;92.30
4578;DHT22;2301;47.354;8.528;2023-07-24T07:09:59;21.80;92.20
4578;DHT22;2301;47.354;8.528;2023-07-24T07:12:26;21.80;92.30
4578;DHT22;2301;47.354;8.528;2023-07-24T07:14:53;21.90;92.30
4578;DHT22;2301;47.354;8.528;2023-07-24T07:17:20;21.90;92.20
4578;DHT22;2301;47.354;8.528;2023-07-24T07:19:47;22.00;92.20
4578;DHT22;2301;47.354;8.528;2023-07-24T07:22:14;22.00;91.90
4578;DHT22;2301;47.354;8.528;2023-07-24T07:24:42;22.10;92.00
4578;DHT22;2301;47.354;8.528;2023-07-24T07:27:10;22.10;91.40
4578;DHT22;2301;47.354;8.528;2023-07-24T07:29:37;22.40;90.00
4578;DHT22;2301;47.354;8.528;2023-07-24T07:32:05;22.60;89.10
4578;DHT22;2301;47.354;8.528;2023-07-24T07:34:32;22.90;88.70
4578;DHT22;2301;47.354;8.528;2023-07-24T07:37:00;23.10;88.50
4578;DHT22;2301;47.354;8.528;2023-07-24T07:39:27;23.30;88.70
4578;DHT22;2301;47.354;8.528;2023-07-24T07:41:53;23.40;88.40
4578;DHT22;2301;47.354;8.528;2023-07-24T07:44:22;23.50;88.20
4578;DHT22;2301;47.354;8.528;2023-07-24T07:46:49;23.60;87.80
4578;DHT22;2301;47.354;8.528;2023-07-24T07:49:15;23.70;87.30
4578;DHT22;2301;47.354;8.528;2023-07-24T07:51:42;23.80;86.90
4578;DHT22;2301;47.354;8.528;2023-07-24T07:54:09;23.80;86.70
4578;DHT22;2301;47.354;8.528;2023-07-24T07:56:36;23.90;87.10
4578;DHT22;2301;47.354;8.528;2023-07-24T07:59:03;23.90;87.10
4578;DHT22;2301;47.354;8.528;2023-07-24T08:01:31;23.90;87.20
4578;DHT22;2301;47.354;8.528;2023-07-24T08:03:58;24.00;87.20
4578;DHT22;2301;47.354;8.528;2023-07-24T08:06:25;24.00;87.20
4578;DHT22;2301;47.354;8.528;2023-07-24T08:08:51;24.00;87.10
4578;DHT22;2301;47.354;8.528;2023-07-24T08:11:18;24.10;87.10
4578;DHT22;2301;47.354;8.528;2023-07-24T08:13:45;24.20;87.30
4578;DHT22;2301;47.354;8.528;2023-07-24T08:16:15;24.20;87.20
4578;DHT22;2301;47.354;8.528;2023-07-24T08:18:45;24.20;87.30
4578;DHT22;2301;47.354;8.528;2023-07-24T08:21:13;24.30;87.50
4578;DHT22;2301;47.354;8.528;2023-07-24T08:23:40;24.40;87.30
4578;DHT22;2301;47.354;8.528;2023-07-24T08:26:07;24.40;87.30
4578;DHT22;2301;47.354;8.528;2023-07-24T08:28:34;24.40;86.80
4578;DHT22;2301;47.354;8.528;2023-07-24T08:31:01;24.50;86.70
4578;DHT22;2301;47.354;8.528;2023-07-24T08:33:28;24.60;86.50
4578;DHT22;2301;47.354;8.528;2023-07-24T08:36:04;24.70;86.60
4578;DHT22;2301;47.354;8.528;2023-07-24T08:38:31;24.80;86.30
4578;DHT22;2301;47.354;8.528;2023-07-24T08:41:02;24.90;85.70
4578;DHT22;2301;47.354;8.528;2023-07-24T08:43:31;25.00;84.60
4578;DHT22;2301;47.354;8.528;2023-07-24T08:45:59;25.10;83.60
4578;DHT22;2301;47.354;8.528;2023-07-24T08:48:26;25.30;83.80
4578;DHT22;2301;47.354;8.528;2023-07-24T08:50:56;25.40;83.30
4578;DHT22;2301;47.354;8.528;2023-07-24T08:53:26;25.50;82.70
4578;DHT22;2301;47.354;8.528;2023-07-24T08:55:56;25.60;82.60
4578;DHT22;2301;47.354;8.528;2023-07-24T08:58:23;25.70;82.10
4578;DHT22;2301;47.354;8.528;2023-07-24T09:00:50;25.80;81.60
4578;DHT22;2301;47.354;8.528;2023-07-24T09:03:18;26.00;81.00
4578;DHT22;2301;47.354;8.528;2023-07-24T09:05:45;26.20;80.20
4578;DHT22;2301;47.354;8.528;2023-07-24T09:08:12;26.50;79.30
4578;DHT22;2301;47.354;8.528;2023-07-24T09:10:41;26.70;78.60
4578;DHT22;2301;47.354;8.528;2023-07-24T09:13:07;26.80;77.50
4578;DHT22;2301;47.354;8.528;2023-07-24T09:15:41;27.10;76.60
4578;DHT22;2301;47.354;8.528;2023-07-24T09:18:08;27.40;76.50
4578;DHT22;2301;47.354;8.528;2023-07-24T09:20:39;27.30;74.70
4578;DHT22;2301;47.354;8.528;2023-07-24T09:23:07;27.30;73.50
4578;DHT22;2301;47.354;8.528;2023-07-24T09:25:36;27.20;72.90
4578;DHT22;2301;47.354;8.528;2023-07-24T09:28:10;27.20;72.60
4578;DHT22;2301;47.354;8.528;2023-07-24T09:30:38;27.20;72.80
4578;DHT22;2301;47.354;8.528;2023-07-24T09:33:06;27.30;71.80
4578;DHT22;2301;47.354;8.528;2023-07-24T09:35:33;27.20;71.00
4578;DHT22;2301;47.354;8.528;2023-07-24T09:38:04;27.00;71.90
4578;DHT22;2301;47.354;8.528;2023-07-24T09:40:39;26.80;72.00
4578;DHT22;2301;47.354;8.528;2023-07-24T09:43:18;26.70;72.20
4578;DHT22;2301;47.354;8.528;2023-07-24T09:45:46;26.50;72.40
4578;DHT22;2301;47.354;8.528;2023-07-24T09:48:14;26.50;73.00
4578;DHT22;2301;47.354;8.528;2023-07-24T09:50:42;26.40;73.50
4578;DHT22;2301;47.354;8.528;2023-07-24T09:53:13;26.30;74.10
4578;DHT22;2301;47.354;8.528;2023-07-24T09:55:49;26.30;74.90
4578;DHT22;2301;47.354;8.528;2023-07-24T09:58:18;26.20;75.30
4578;DHT22;2301;47.354;8.528;2023-07-24T10:00:48;26.20;75.60
4578;DHT22;2301;47.354;8.528;2023-07-24T10:03:16;26.10;75.70
4578;DHT22;2301;47.354;8.528;2023-07-24T10:05:44;26.00;75.60
4578;DHT22;2301;47.354;8.528;2023-07-24T10:08:11;26.00;76.40
4578;DHT22;2301;47.354;8.528;2023-07-24T10:10:38;25.90;76.80
4578;DHT22;2301;47.354;8.528;2023-07-24T10:13:06;25.80;76.70
4578;DHT22;2301;47.354;8.528;2023-07-24T10:15:37;25.80;77.80
4578;DHT22;2301;47.354;8.528;2023-07-24T10:18:06;25.70;78.50
4578;DHT22;2301;47.354;8.528;2023-07-24T10:20:34;25.80;79.70
4578;DHT22;2301;47.354;8.528;2023-07-24T10:23:02;25.80;79.50
4578;DHT22;2301;47.354;8.528;2023-07-24T10:25:30;25.90;79.40
4578;DHT22;2301;47.354;8.528;2023-07-24T10:28:02;26.10;79.20
4578;DHT22;2301;47.354;8.528;2023-07-24T10:30:32;26.20;78.90
4578;DHT22;2301;47.354;8.528;2023-07-24T10:33:08;26.20;78.30
4578;DHT22;2301;47.354;8.528;2023-07-24T10:35:40;26.10;78.10
4578;DHT22;2301;47.354;8.528;2023-07-24T10:38:08;26.00;77.30
4578;DHT22;2301;47.354;8.528;2023-07-24T10:40:37;25.90;76.80
4578;DHT22;2301;47.354;8.528;2023-07-24T10:43:09;25.80;76.80
4578;DHT22;2301;47.354;8.528;2023-07-24T10:45:40;25.70;76.70
4578;DHT22;2301;47.354;8.528;2023-07-24T10:48:09;25.60;77.20
4578;DHT22;2301;47.354;8.528;2023-07-24T10:50:40;25.60;77.10
4578;DHT22;2301;47.354;8.528;2023-07-24T10:53:08;25.60;76.90
4578;DHT22;2301;47.354;8.528;2023-07-24T10:55:36;25.50;76.40
4578;DHT22;2301;47.354;8.528;2023-07-24T10:58:02;25.50;76.60
4578;DHT22;2301;47.354;8.528;2023-07-24T11:00:30;25.50;77.40
4578;DHT22;2301;47.354;8.528;2023-07-24T11:02:57;25.70;78.60
4578;DHT22;2301;47.354;8.528;2023-07-24T11:05:25;25.70;76.60
4578;DHT22;2301;47.354;8.528;2023-07-24T11:07:53;25.70;75.20
4578;DHT22;2301;47.354;8.528;2023-07-24T11:10:23;25.40;75.70
4578;DHT22;2301;47.354;8.528;2023-07-24T11:12:50;25.40;76.80
4578;DHT22;2301;47.354;8.528;2023-07-24T11:15:24;25.20;75.70
4578;DHT22;2301;47.354;8.528;2023-07-24T11:17:52;25.40;77.30
4578;DHT22;2301;47.354;8.528;2023-07-24T11:20:19;25.50;76.10
4578;DHT22;2301;47.354;8.528;2023-07-24T11:22:47;25.50;76.10
4578;DHT22;2301;47.354;8.528;2023-07-24T11:25:14;25.50;77.00
4578;DHT22;2301;47.354;8.528;2023-07-24T11:27:42;25.50;77.10
4578;DHT22;2301;47.354;8.528;2023-07-24T11:30:10;25.30;75.90
4578;DHT22;2301;47.354;8.528;2023-07-24T11:32:38;25.20;76.40
4578;DHT22;2301;47.354;8.528;2023-07-24T11:35:07;25.00;76.40
4578;DHT22;2301;47.354;8.528;2023-07-24T11:37:35;24.80;77.10
4578;DHT22;2301;47.354;8.528;2023-07-24T11:40:04;24.70;78.20
4578;DHT22;2301;47.354;8.528;2023-07-24T11:42:37;24.60;78.00
4578;DHT22;2301;47.354;8.528;2023-07-24T11:45:06;24.50;78.80
4578;DHT22;2301;47.354;8.528;2023-07-24T11:47:42;24.40;80.10
4578;DHT22;2301;47.354;8.528;2023-07-24T11:50:09;24.40;80.00
4578;DHT22;2301;47.354;8.528;2023-07-24T11:52:40;24.40;80.10
4578;DHT22;2301;47.354;8.528;2023-07-24T11:55:12;24.40;80.10
4578;DHT22;2301;47.354;8.528;2023-07-24T11:57:39;24.50;80.20
4578;DHT22;2301;47.354;8.528;2023-07-24T12:00:18;24.50;79.80
4578;DHT22;2301;47.354;8.528;2023-07-24T12:02:45;24.70;81.40
4578;DHT22;2301;47.354;8.528;2023-07-24T12:05:12;24.70;81.00
4578;DHT22;2301;47.354;8.528;2023-07-24T12:07:39;24.70;79.40
4578;DHT22;2301;47.354;8.528;2023-07-24T12:10:12;24.60;79.30
4578;DHT22;2301;47.354;8.528;2023-07-24T12:12:43;24.70;80.70
4578;DHT22;2301;47.354;8.528;2023-07-24T12:15:13;24.70;80.70
4578;DHT22;2301;47.354;8.528;2023-07-24T12:17:40;24.80;79.80
4578;DHT22;2301;47.354;8.528;2023-07-24T12:20:09;24.90;79.80
4578;DHT22;2301;47.354;8.528;2023-07-24T12:22:37;24.90;79.80
4578;DHT22;2301;47.354;8.528;2023-07-24T12:25:05;24.90;79.70
4578;DHT22;2301;47.354;8.528;2023-07-24T12:27:35;24.90;79.60
4578;DHT22;2301;47.354;8.528;2023-07-24T12:30:06;24.80;80.10
4578;DHT22;2301;47.354;8.528;2023-07-24T12:32:35;24.80;80.10
4578;DHT22;2301;47.354;8.528;2023-07-24T12:40:13;25.00;80.70
4578;DHT22;2301;47.354;8.528;2023-07-24T12:45:17;25.30;80.60
4578;DHT22;2301;47.354;8.528;2023-07-24T12:47:44;25.40;79.60
4578;DHT22;2301;47.354;8.528;2023-07-24T12:50:11;25.50;80.20
4578;DHT22;2301;47.354;8.528;2023-07-24T12:52:38;25.60;79.80
4578;DHT22;2301;47.354;8.528;2023-07-24T12:55:06;25.70;78.50
4578;DHT22;2301;47.354;8.528;2023-07-24T12:57:33;25.90;78.20
4578;DHT22;2301;47.354;8.528;2023-07-24T13:00:00;26.00;77.30
4578;DHT22;2301;47.354;8.528;2023-07-24T13:02:28;26.10;77.00
4578;DHT22;2301;47.354;8.528;2023-07-24T13:04:55;26.20;75.10
4578;DHT22;2301;47.354;8.528;2023-07-24T13:07:22;26.30;72.30
4578;DHT22;2301;47.354;8.528;2023-07-24T13:09:49;26.30;71.20
4578;DHT22;2301;47.354;8.528;2023-07-24T13:12:16;26.30;71.20
4578;DHT22;2301;47.354;8.528;2023-07-24T13:14:43;26.30;70.20
4578;DHT22;2301;47.354;8.528;2023-07-24T13:17:09;26.30;70.70
4578;DHT22;2301;47.354;8.528;2023-07-24T13:19:38;26.20;71.70
4578;DHT22;2301;47.354;8.528;2023-07-24T13:22:05;26.20;71.90
4578;DHT22;2301;47.354;8.528;2023-07-24T13:24:32;26.20;72.40
4578;DHT22;2301;47.354;8.528;2023-07-24T13:26:59;26.20;71.80
4578;DHT22;2301;47.354;8.528;2023-07-24T13:29:26;26.20;72.00
4578;DHT22;2301;47.354;8.528;2023-07-24T13:31:53;26.20;71.50
4578;DHT22;2301;47.354;8.528;2023-07-24T13:34:21;26.20;71.90
4578;DHT22;2301;47.354;8.528;2023-07-24T13:36:50;26.10;72.50
4578;DHT22;2301;47.354;8.528;2023-07-24T13:39:17;26.20;72.80
4578;DHT22;2301;47.354;8.528;2023-07-24T13:41:44;26.20;72.20
4578;DHT22;2301;47.354;8.528;2023-07-24T13:44:10;26.20;72.40
4578;DHT22;2301;47.354;8.528;2023-07-24T13:46:37;26.20;72.30
4578;DHT22;2301;47.354;8.528;2023-07-24T13:49:04;26.20;72.60
4578;DHT22;2301;47.354;8.528;2023-07-24T13:51:31;26.10;73.20
4578;DHT22;2301;47.354;8.528;2023-07-24T13:53:59;26.10;74.40
4578;DHT22;2301;47.354;8.528;2023-07-24T13:56:26;26.10;74.30
4578;DHT22;2301;47.354;8.528;2023-07-24T13:58:55;26.00;74.00
4578;DHT22;2301;47.354;8.528;2023-07-24T14:01:22;26.00;74.70
4578;DHT22;2301;47.354;8.528;2023-07-24T14:03:49;25.90;74.30
4578;DHT22;2301;47.354;8.528;2023-07-24T14:06:16;25.90;74.90
4578;DHT22;2301;47.354;8.528;2023-07-24T14:08:43;25.90;74.70
4578;DHT22;2301;47.354;8.528;2023-07-24T14:11:11;25.90;74.20
4578;DHT22;2301;47.354;8.528;2023-07-24T14:13:38;25.90;72.70
4578;DHT22;2301;47.354;8.528;2023-07-24T14:16:05;25.90;72.30
4578;DHT22;2301;47.354;8.528;2023-07-24T14:18:32;25.90;71.90
4578;DHT22;2301;47.354;8.528;2023-07-24T14:20:59;25.80;71.30
4578;DHT22;2301;47.354;8.528;2023-07-24T14:23:26;25.80;71.60
4578;DHT22;2301;47.354;8.528;2023-07-24T14:25:53;25.80;72.40
4578;DHT22;2301;47.354;8.528;2023-07-24T14:28:21;25.80;72.10
4578;DHT22;2301;47.354;8.528;2023-07-24T14:30:48;25.80;73.50
4578;DHT22;2301;47.354;8.528;2023-07-24T14:33:14;25.90;74.30
4578;DHT22;2301;47.354;8.528;2023-07-24T14:35:41;26.00;74.70
4578;DHT22;2301;47.354;8.528;2023-07-24T14:38:08;26.00;74.60
4578;DHT22;2301;47.354;8.528;2023-07-24T14:40:35;26.00;74.30
4578;DHT22;2301;47.354;8.528;2023-07-24T14:43:02;26.00;74.00
4578;DHT22;2301;47.354;8.528;2023-07-24T14:45:31;26.00;73.70
4578;DHT22;2301;47.354;8.528;2023-07-24T14:47:57;25.80;72.50
4578;DHT22;2301;47.354;8.528;2023-07-24T14:50:25;25.70;73.00
4578;DHT22;2301;47.354;8.528;2023-07-24T14:52:52;25.50;73.80
4578;DHT22;2301;47.354;8.528;2023-07-24T14:55:19;25.50;75.00
4578;DHT22;2301;47.354;8.528;2023-07-24T14:57:46;25.50;75.80
4578;DHT22;2301;47.354;8.528;2023-07-24T15:00:13;25.50;75.80
4578;DHT22;2301;47.354;8.528;2023-07-24T15:02:43;25.50;75.80
4578;DHT22;2301;47.354;8.528;2023-07-24T15:05:10;25.50;76.10
4578;DHT22;2301;47.354;8.528;2023-07-24T15:07:37;25.40;75.70
4578;DHT22;2301;47.354;8.528;2023-07-24T15:10:05;25.40;75.90
4578;DHT22;2301;47.354;8.528;2023-07-24T15:12:32;25.40;75.30
4578;DHT22;2301;47.354;8.528;2023-07-24T15:14:59;25.40;74.90
4578;DHT22;2301;47.354;8.528;2023-07-24T15:17:26;25.40;73.10
4578;DHT22;2301;47.354;8.528;2023-07-24T15:19:54;25.30;70.20
4578;DHT22;2301;47.354;8.528;2023-07-24T15:22:21;25.30;70.10
4578;DHT22;2301;47.354;8.528;2023-07-24T15:24:48;25.10;69.80
4578;DHT22;2301;47.354;8.528;2023-07-24T15:27:15;25.10;68.80
4578;DHT22;2301;47.354;8.528;2023-07-24T15:29:42;25.00;69.30
4578;DHT22;2301;47.354;8.528;2023-07-24T15:32:09;25.00;69.60
4578;DHT22;2301;47.354;8.528;2023-07-24T15:34:37;25.00;69.50
4578;DHT22;2301;47.354;8.528;2023-07-24T15:37:06;25.00;69.10
4578;DHT22;2301;47.354;8.528;2023-07-24T15:39:33;25.00;69.10
4578;DHT22;2301;47.354;8.528;2023-07-24T15:42:00;25.00;69.50
4578;DHT22;2301;47.354;8.528;2023-07-24T15:44:27;25.00;69.40
4578;DHT22;2301;47.354;8.528;2023-07-24T15:46:54;25.00;69.50
4578;DHT22;2301;47.354;8.528;2023-07-24T15:49:21;25.10;69.20
4578;DHT22;2301;47.354;8.528;2023-07-24T15:51:48;25.10;69.30
4578;DHT22;2301;47.354;8.528;2023-07-24T15:54:16;25.10;69.70
4578;DHT22;2301;47.354;8.528;2023-07-24T15:56:43;25.00;69.50
4578;DHT22;2301;47.354;8.528;2023-07-24T15:59:10;25.00;69.60
4578;DHT22;2301;47.354;8.528;2023-07-24T16:01:37;24.90;69.70
4578;DHT22;2301;47.354;8.528;2023-07-24T16:04:04;24.80;69.40
4578;DHT22;2301;47.354;8.528;2023-07-24T16:06:31;24.80;69.50
4578;DHT22;2301;47.354;8.528;2023-07-24T16:09:00;24.70;69.50
4578;DHT22;2301;47.354;8.528;2023-07-24T16:11:28;24.60;69.90
4578;DHT22;2301;47.354;8.528;2023-07-24T16:13:55;24.50;71.40